createdAt,value
2018-04-26T00:00:14.180Z,995.33
2018-04-26T00:01:14.129Z,995.36
2018-04-26T00:02:14.040Z,995.26
2018-04-26T00:03:13.975Z,995.24
2018-04-26T00:04:13.929Z,995.35
2018-04-26T00:05:13.858Z,995.26
2018-04-26T00:06:13.780Z,995.32
2018-04-26T00:07:13.718Z,995.30
2018-04-26T00:08:13.653Z,995.29
2018-04-26T00:09:13.582Z,995.32
2018-04-26T00:10:13.517Z,995.32
2018-04-26T00:11:13.463Z,995.35
2018-04-26T00:12:13.404Z,995.35
2018-04-26T00:13:13.338Z,995.37
2018-04-26T00:14:13.274Z,995.40
2018-04-26T00:15:13.235Z,995.41
2018-04-26T00:16:13.138Z,995.49
2018-04-26T00:17:13.057Z,995.46
2018-04-26T00:18:12.995Z,995.44
2018-04-26T00:19:12.938Z,995.46
2018-04-26T00:20:12.873Z,995.30
2018-04-26T00:21:12.814Z,995.35
2018-04-26T00:22:12.736Z,995.35
2018-04-26T00:23:12.676Z,995.34
2018-04-26T00:24:12.595Z,995.41
2018-04-26T00:25:12.556Z,995.33
2018-04-26T00:26:12.487Z,995.37
2018-04-26T00:27:12.424Z,995.28
2018-04-26T00:28:12.356Z,995.26
2018-04-26T00:29:12.292Z,995.35
2018-04-26T00:30:12.225Z,995.31
2018-04-26T00:31:12.157Z,995.26
2018-04-26T00:32:12.093Z,995.25
2018-04-26T00:33:12.019Z,995.22
2018-04-26T00:34:11.945Z,995.19
2018-04-26T00:35:11.956Z,995.15
2018-04-26T00:36:11.809Z,995.16
2018-04-26T00:37:11.757Z,995.16
2018-04-26T00:38:11.695Z,995.15
2018-04-26T00:39:11.628Z,995.13
2018-04-26T00:40:11.547Z,995.07
2018-04-26T00:41:11.504Z,995.13
2018-04-26T00:42:11.439Z,995.08
2018-04-26T00:43:11.360Z,995.11
2018-04-26T00:44:11.303Z,995.07
2018-04-26T00:45:11.226Z,995.16
2018-04-26T00:46:11.165Z,995.15
2018-04-26T00:47:11.095Z,995.12
2018-04-26T00:48:11.030Z,995.10
2018-04-26T00:49:10.966Z,995.11
2018-04-26T00:50:10.938Z,995.04
2018-04-26T00:51:10.847Z,995.06
2018-04-26T00:52:10.779Z,995.06
2018-04-26T00:53:10.717Z,995.06
2018-04-26T00:54:10.633Z,995.10
2018-04-26T00:55:10.573Z,995.01
2018-04-26T00:56:10.501Z,995.07
2018-04-26T00:57:10.438Z,995.02
2018-04-26T00:58:10.377Z,995.05
2018-04-26T00:59:10.314Z,995.08
2018-04-26T01:00:10.262Z,995.05
2018-04-26T01:01:10.188Z,995.01
2018-04-26T01:02:10.106Z,995.03
2018-04-26T01:03:10.040Z,994.99
2018-04-26T01:04:09.970Z,994.97
2018-04-26T01:05:09.924Z,995.04
2018-04-26T01:06:09.864Z,994.99
2018-04-26T01:07:09.792Z,994.99
2018-04-26T01:08:09.730Z,994.99
2018-04-26T01:09:09.649Z,994.90
2018-04-26T01:10:09.596Z,994.97
2018-04-26T01:11:09.536Z,994.95
2018-04-26T01:12:09.455Z,994.89
2018-04-26T01:13:09.390Z,994.94
2018-04-26T01:14:09.326Z,994.90
2018-04-26T01:15:09.256Z,994.81
2018-04-26T01:16:09.185Z,994.85
2018-04-26T01:17:09.136Z,994.84
2018-04-26T01:18:09.056Z,994.78
2018-04-26T01:19:09.003Z,994.66
2018-04-26T01:20:08.941Z,994.66
2018-04-26T01:21:08.854Z,994.71
2018-04-26T01:22:08.834Z,994.65
2018-04-26T01:23:08.742Z,994.61
2018-04-26T01:24:08.671Z,994.68
2018-04-26T01:25:08.614Z,994.61
2018-04-26T01:26:08.529Z,994.64
2018-04-26T01:27:08.460Z,994.65
2018-04-26T01:28:08.395Z,994.67
2018-04-26T01:29:08.347Z,994.64
2018-04-26T01:30:08.282Z,994.67
2018-04-26T01:31:08.220Z,994.74
2018-04-26T01:32:08.130Z,994.69
2018-04-26T01:33:08.061Z,994.63
2018-04-26T01:34:08.004Z,994.60
2018-04-26T01:35:07.946Z,994.60
2018-04-26T01:36:07.884Z,994.59
2018-04-26T01:37:07.805Z,994.58
2018-04-26T01:38:07.789Z,994.63
2018-04-26T01:39:07.676Z,994.58
2018-04-26T01:40:07.637Z,994.60
2018-04-26T01:41:07.552Z,994.61
2018-04-26T01:42:07.491Z,994.61
2018-04-26T01:43:07.411Z,994.62
2018-04-26T01:44:07.346Z,994.62
2018-04-26T01:45:07.287Z,994.62
2018-04-26T01:46:07.216Z,994.61
2018-04-26T01:47:07.147Z,994.66
2018-04-26T01:48:07.088Z,994.61
2018-04-26T01:49:07.030Z,994.66
2018-04-26T01:50:06.971Z,994.64
2018-04-26T01:51:06.907Z,994.57
2018-04-26T01:52:06.818Z,994.67
2018-04-26T01:53:06.755Z,994.56
2018-04-26T01:54:06.703Z,994.61
2018-04-26T01:55:06.621Z,994.54
2018-04-26T01:56:06.550Z,994.59
2018-04-26T01:57:06.491Z,994.53
2018-04-26T01:58:06.429Z,994.59
2018-04-26T01:59:06.353Z,994.55
2018-04-26T02:00:06.290Z,994.53
2018-04-26T02:01:06.225Z,994.57
2018-04-26T02:02:06.159Z,994.59
2018-04-26T02:03:06.114Z,994.55
2018-04-26T02:04:06.043Z,994.67
2018-04-26T02:05:05.985Z,994.57
2018-04-26T02:06:05.920Z,994.53
2018-04-26T02:07:05.828Z,994.60
2018-04-26T02:08:05.785Z,994.64
2018-04-26T02:09:05.710Z,994.66
2018-04-26T02:10:05.631Z,994.64
2018-04-26T02:11:05.568Z,994.63
2018-04-26T02:12:05.517Z,994.65
2018-04-26T02:13:05.456Z,994.67
2018-04-26T02:14:05.376Z,994.64
2018-04-26T02:15:05.318Z,994.59
2018-04-26T02:16:05.240Z,994.55
2018-04-26T02:17:05.185Z,994.54
2018-04-26T02:18:05.120Z,994.57
2018-04-26T02:19:05.043Z,994.54
2018-04-26T02:20:04.989Z,994.55
2018-04-26T02:21:04.907Z,994.51
2018-04-26T02:22:04.855Z,994.50
2018-04-26T02:23:04.795Z,994.50
2018-04-26T02:24:04.859Z,994.46
2018-04-26T02:25:04.734Z,994.50
2018-04-26T02:26:04.594Z,994.43
2018-04-26T02:27:04.537Z,994.44
2018-04-26T02:28:04.463Z,994.36
2018-04-26T02:29:04.399Z,994.42
2018-04-26T02:30:04.330Z,994.38
2018-04-26T02:31:04.266Z,994.36
2018-04-26T02:32:04.204Z,994.32
2018-04-26T02:33:04.115Z,994.27
2018-04-26T02:34:04.081Z,994.39
2018-04-26T02:35:03.990Z,994.34
2018-04-26T02:36:03.940Z,994.32
2018-04-26T02:37:03.859Z,994.35
2018-04-26T02:38:03.806Z,994.44
2018-04-26T02:39:03.754Z,994.36
2018-04-26T02:40:03.655Z,994.30
2018-04-26T02:41:03.592Z,994.32
2018-04-26T02:42:03.526Z,994.28
2018-04-26T02:43:03.476Z,994.28
2018-04-26T02:44:03.416Z,994.31
2018-04-26T02:45:03.327Z,994.19
2018-04-26T02:46:03.338Z,994.22
2018-04-26T02:47:03.194Z,994.20
2018-04-26T02:48:03.124Z,994.23
2018-04-26T02:49:03.082Z,994.17
2018-04-26T02:50:03.024Z,994.19
2018-04-26T02:51:02.945Z,994.17
2018-04-26T02:52:02.877Z,994.25
2018-04-26T02:53:02.805Z,994.20
2018-04-26T02:54:02.766Z,994.19
2018-04-26T02:55:02.697Z,994.20
2018-04-26T02:56:02.600Z,994.14
2018-04-26T02:57:02.536Z,994.14
2018-04-26T02:58:02.472Z,994.15
2018-04-26T02:59:02.406Z,994.13
2018-04-26T03:00:02.366Z,994.12
2018-04-26T03:01:02.288Z,994.04
2018-04-26T03:02:02.205Z,994.08
2018-04-26T03:03:02.148Z,994.06
2018-04-26T03:04:02.087Z,994.10
2018-04-26T03:05:02.044Z,994.09
2018-04-26T03:06:01.934Z,994.10
2018-04-26T03:07:01.886Z,994.06
2018-04-26T03:08:01.828Z,994.08
2018-04-26T03:09:01.743Z,994.15
2018-04-26T03:10:01.704Z,994.07
2018-04-26T03:11:01.637Z,994.08
2018-04-26T03:12:01.540Z,994.09
2018-04-26T03:13:01.502Z,994.10
2018-04-26T03:14:01.429Z,994.09
2018-04-26T03:15:01.361Z,994.03
2018-04-26T03:16:01.282Z,994.05
2018-04-26T03:17:01.212Z,994.05
2018-04-26T03:18:01.164Z,993.97
2018-04-26T03:19:01.093Z,994.04
2018-04-26T03:20:01.016Z,993.99
2018-04-26T03:21:00.962Z,994.05
2018-04-26T03:22:00.879Z,994.04
2018-04-26T03:23:00.820Z,993.99
2018-04-26T03:24:00.770Z,994.04
2018-04-26T03:25:00.686Z,993.96
2018-04-26T03:26:00.633Z,994.01
2018-04-26T03:27:00.564Z,994.02
2018-04-26T03:28:00.488Z,994.01
2018-04-26T03:29:00.452Z,994.00
2018-04-26T03:30:00.365Z,993.95
2018-04-26T03:31:00.397Z,993.95
2018-04-26T03:32:00.250Z,993.89
2018-04-26T03:33:00.156Z,993.89
2018-04-26T03:34:00.092Z,993.86
2018-04-26T03:35:00.047Z,993.84
2018-04-26T03:35:59.949Z,993.93
2018-04-26T03:36:59.888Z,993.85
2018-04-26T03:37:59.839Z,993.83
2018-04-26T03:38:59.779Z,993.92
2018-04-26T03:39:59.691Z,993.83
2018-04-26T03:40:59.632Z,993.86
2018-04-26T03:41:59.558Z,993.87
2018-04-26T03:42:59.510Z,993.89
2018-04-26T03:43:59.424Z,993.91
2018-04-26T03:44:59.358Z,993.87
2018-04-26T03:45:59.295Z,993.85
2018-04-26T03:46:59.243Z,993.82
2018-04-26T03:47:59.162Z,993.81
2018-04-26T03:48:59.119Z,993.84
2018-04-26T03:49:59.042Z,993.77
2018-04-26T03:50:58.979Z,993.84
2018-04-26T03:51:58.907Z,993.84
2018-04-26T03:52:58.851Z,993.90
2018-04-26T03:53:58.776Z,993.82
2018-04-26T03:54:58.690Z,993.82
2018-04-26T03:55:58.624Z,993.78
2018-04-26T03:56:58.580Z,993.70
2018-04-26T03:57:58.498Z,993.75
2018-04-26T03:58:58.436Z,993.72
2018-04-26T03:59:58.364Z,993.73
2018-04-26T04:00:58.327Z,993.76
2018-04-26T04:01:58.231Z,993.67
2018-04-26T04:02:58.182Z,993.70
2018-04-26T04:03:58.096Z,993.66
2018-04-26T04:04:58.030Z,993.67
2018-04-26T04:05:58.004Z,993.71
2018-04-26T04:06:57.935Z,993.62
2018-04-26T04:07:57.851Z,993.72
2018-04-26T04:08:57.766Z,993.65
2018-04-26T04:09:57.708Z,993.60
2018-04-26T04:10:57.637Z,993.69
2018-04-26T04:11:57.577Z,993.70
2018-04-26T04:12:57.518Z,993.68
2018-04-26T04:13:57.443Z,993.68
2018-04-26T04:14:57.372Z,993.70
2018-04-26T04:15:57.312Z,993.63
2018-04-26T04:16:57.263Z,993.64
2018-04-26T04:17:57.188Z,993.63
2018-04-26T04:18:57.115Z,993.61
2018-04-26T04:19:57.071Z,993.66
2018-04-26T04:20:56.973Z,993.66
2018-04-26T04:21:56.899Z,993.64
2018-04-26T04:22:56.867Z,993.52
2018-04-26T04:23:56.784Z,993.69
2018-04-26T04:24:56.738Z,993.68
2018-04-26T04:25:56.654Z,993.58
2018-04-26T04:26:56.580Z,993.59
2018-04-26T04:27:56.524Z,993.55
2018-04-26T04:28:56.454Z,993.61
2018-04-26T04:29:56.371Z,993.54
2018-04-26T04:30:56.332Z,993.63
2018-04-26T04:31:56.250Z,993.60
2018-04-26T04:32:56.172Z,993.62
2018-04-26T04:33:56.124Z,993.63
2018-04-26T04:34:56.056Z,993.65
2018-04-26T04:35:55.990Z,993.72
2018-04-26T04:36:55.905Z,993.68
2018-04-26T04:37:55.849Z,993.71
2018-04-26T04:38:55.792Z,993.69
2018-04-26T04:39:55.704Z,993.68
2018-04-26T04:40:55.639Z,993.75
2018-04-26T04:41:55.592Z,993.74
2018-04-26T04:42:55.505Z,993.71
2018-04-26T04:43:55.434Z,993.74
2018-04-26T04:44:55.373Z,993.75
2018-04-26T04:45:55.306Z,993.66
2018-04-26T04:46:55.246Z,993.71
2018-04-26T04:47:55.197Z,993.71
2018-04-26T04:48:55.112Z,993.77
2018-04-26T04:49:55.057Z,993.72
2018-04-26T04:50:54.976Z,993.74
2018-04-26T04:51:54.926Z,993.80
2018-04-26T04:52:54.838Z,993.78
2018-04-26T04:53:54.774Z,993.75
2018-04-26T04:54:54.728Z,993.74
2018-04-26T04:55:54.659Z,993.73
2018-04-26T04:56:54.569Z,993.75
2018-04-26T04:57:54.505Z,993.76
2018-04-26T04:58:54.437Z,993.73
2018-04-26T04:59:54.385Z,993.81
2018-04-26T05:00:54.312Z,993.83
2018-04-26T05:01:54.275Z,993.83
2018-04-26T05:02:54.212Z,993.80
2018-04-26T05:03:54.123Z,993.80
2018-04-26T05:04:54.063Z,993.85
2018-04-26T05:05:53.997Z,993.83
2018-04-26T05:06:53.913Z,993.93
2018-04-26T05:07:53.837Z,993.89
2018-04-26T05:08:53.792Z,993.85
2018-04-26T05:09:53.716Z,993.79
2018-04-26T05:10:53.649Z,993.79
2018-04-26T05:11:53.608Z,993.84
2018-04-26T05:12:53.514Z,993.84
2018-04-26T05:13:53.491Z,993.81
2018-04-26T05:14:53.373Z,993.83
2018-04-26T05:15:53.309Z,993.76
2018-04-26T05:16:53.264Z,993.76
2018-04-26T05:17:53.182Z,993.80
2018-04-26T05:18:53.130Z,993.77
2018-04-26T05:19:53.081Z,993.93
2018-04-26T05:20:53.002Z,993.83
2018-04-26T05:21:52.937Z,993.82
2018-04-26T05:22:52.866Z,993.79
2018-04-26T05:23:52.769Z,993.82
2018-04-26T05:24:52.729Z,993.85
2018-04-26T05:25:52.653Z,993.79
2018-04-26T05:26:52.597Z,993.84
2018-04-26T05:27:52.501Z,993.83
2018-04-26T05:28:52.445Z,993.86
2018-04-26T05:29:52.391Z,993.88
2018-04-26T05:30:52.315Z,993.88
2018-04-26T05:31:52.236Z,993.92
2018-04-26T05:32:52.199Z,993.97
2018-04-26T05:33:52.121Z,993.97
2018-04-26T05:34:52.054Z,993.90
2018-04-26T05:35:51.999Z,993.94
2018-04-26T05:36:51.913Z,993.96
2018-04-26T05:37:51.836Z,993.94
2018-04-26T05:38:51.780Z,993.97
2018-04-26T05:39:51.722Z,994.00
2018-04-26T05:40:51.660Z,993.96
2018-04-26T05:41:51.606Z,994.00
2018-04-26T05:42:51.558Z,993.94
2018-04-26T05:43:51.440Z,993.95
2018-04-26T05:44:51.369Z,994.04
2018-04-26T05:45:51.331Z,994.06
2018-04-26T05:46:51.258Z,994.02
2018-04-26T05:47:51.182Z,994.03
2018-04-26T05:48:51.109Z,993.99
2018-04-26T05:49:51.053Z,994.00
2018-04-26T05:50:50.996Z,993.99
2018-04-26T05:51:50.909Z,994.03
2018-04-26T05:52:50.852Z,993.96
2018-04-26T05:53:50.769Z,993.98
2018-04-26T05:54:50.705Z,993.92
2018-04-26T05:55:50.669Z,993.93
2018-04-26T05:56:50.594Z,993.96
2018-04-26T05:57:50.518Z,993.95
2018-04-26T05:58:50.465Z,993.96
2018-04-26T05:59:50.393Z,993.99
2018-04-26T06:00:50.328Z,994.01
2018-04-26T06:01:50.246Z,993.96
2018-04-26T06:02:50.180Z,993.99
2018-04-26T06:03:50.186Z,994.02
2018-04-26T06:04:50.065Z,994.08
2018-04-26T06:05:49.978Z,994.10
2018-04-26T06:06:49.918Z,994.07
2018-04-26T06:07:49.843Z,994.07
2018-04-26T06:08:49.787Z,994.12
2018-04-26T06:09:49.717Z,994.16
2018-04-26T06:10:49.660Z,994.15
2018-04-26T06:11:49.587Z,994.18
2018-04-26T06:12:49.532Z,994.09
2018-04-26T06:13:49.455Z,994.25
2018-04-26T06:14:49.385Z,994.21
2018-04-26T06:15:49.321Z,994.25
2018-04-26T06:16:49.335Z,994.25
2018-04-26T06:17:49.212Z,994.25
2018-04-26T06:18:49.134Z,994.29
2018-04-26T06:19:49.079Z,994.27
2018-04-26T06:20:48.999Z,994.28
2018-04-26T06:21:48.923Z,994.29
2018-04-26T06:22:48.877Z,994.35
2018-04-26T06:23:48.805Z,994.29
2018-04-26T06:24:48.726Z,994.32
2018-04-26T06:25:48.664Z,994.33
2018-04-26T06:26:48.598Z,994.37
2018-04-26T06:27:48.543Z,994.33
2018-04-26T06:28:48.477Z,994.33
2018-04-26T06:29:48.396Z,994.34
2018-04-26T06:30:48.347Z,994.34
2018-04-26T06:31:48.278Z,994.29
2018-04-26T06:32:48.221Z,994.34
2018-04-26T06:33:48.129Z,994.28
2018-04-26T06:34:48.078Z,994.31
2018-04-26T06:35:48.012Z,994.33
2018-04-26T06:36:47.990Z,994.26
2018-04-26T06:37:47.905Z,994.33
2018-04-26T06:38:47.808Z,994.32
2018-04-26T06:39:47.836Z,994.32
2018-04-26T06:40:47.708Z,994.35
2018-04-26T06:41:47.610Z,994.30
2018-04-26T06:42:47.563Z,994.34
2018-04-26T06:43:47.512Z,994.37
2018-04-26T06:44:47.403Z,994.37
2018-04-26T06:45:47.345Z,994.45
2018-04-26T06:46:47.282Z,994.33
2018-04-26T06:47:47.232Z,994.35
2018-04-26T06:48:47.165Z,994.27
2018-04-26T06:49:47.079Z,994.39
2018-04-26T06:50:47.029Z,994.41
2018-04-26T06:51:46.951Z,994.41
2018-04-26T06:52:46.883Z,994.33
2018-04-26T06:53:46.820Z,994.40
2018-04-26T06:54:46.752Z,994.37
2018-04-26T06:55:46.705Z,994.41
2018-04-26T06:56:46.632Z,994.33
2018-04-26T06:57:46.578Z,994.44
2018-04-26T06:58:46.512Z,994.37
2018-04-26T06:59:46.445Z,994.36
2018-04-26T07:00:46.401Z,994.42
2018-04-26T07:01:46.302Z,994.42
2018-04-26T07:02:46.240Z,994.48
2018-04-26T07:03:46.194Z,994.41
2018-04-26T07:04:46.109Z,994.43
2018-04-26T07:05:46.118Z,994.47
2018-04-26T07:06:45.974Z,994.43
2018-04-26T07:07:45.908Z,994.43
2018-04-26T07:08:45.864Z,994.40
2018-04-26T07:09:45.797Z,994.49
2018-04-26T07:10:45.735Z,994.44
2018-04-26T07:11:45.646Z,994.45
2018-04-26T07:12:45.586Z,994.46
2018-04-26T07:13:45.521Z,994.46
2018-04-26T07:14:45.460Z,994.44
2018-04-26T07:15:45.401Z,994.42
2018-04-26T07:16:45.347Z,994.44
2018-04-26T07:17:45.263Z,994.49
2018-04-26T07:18:45.197Z,994.44
2018-04-26T07:19:45.155Z,994.55
2018-04-26T07:20:45.089Z,994.48
2018-04-26T07:21:45.066Z,994.49
2018-04-26T07:22:44.956Z,994.54
2018-04-26T07:23:44.880Z,994.51
2018-04-26T07:24:44.825Z,994.62
2018-04-26T07:25:44.749Z,994.62
2018-04-26T07:26:44.700Z,994.51
2018-04-26T07:27:44.616Z,994.60
2018-04-26T07:28:44.571Z,994.57
2018-04-26T07:29:44.503Z,994.62
2018-04-26T07:30:44.442Z,994.57
2018-04-26T07:31:44.353Z,994.60
2018-04-26T07:32:44.313Z,994.60
2018-04-26T07:33:44.258Z,994.65
2018-04-26T07:34:44.164Z,994.62
2018-04-26T07:35:44.097Z,994.68
2018-04-26T07:36:44.031Z,994.77
2018-04-26T07:37:43.983Z,994.66
2018-04-26T07:38:43.911Z,994.63
2018-04-26T07:39:43.837Z,994.65
2018-04-26T07:40:43.780Z,994.69
2018-04-26T07:41:43.728Z,994.68
2018-04-26T07:42:43.656Z,994.64
2018-04-26T07:43:43.589Z,994.63
2018-04-26T07:44:43.533Z,994.62
2018-04-26T07:45:43.458Z,994.64
2018-04-26T07:46:43.393Z,994.61
2018-04-26T07:47:43.339Z,994.67
2018-04-26T07:48:43.286Z,994.60
2018-04-26T07:49:43.201Z,994.66
2018-04-26T07:50:43.152Z,994.62
2018-04-26T07:51:43.101Z,994.50
2018-04-26T07:52:43.007Z,994.57
2018-04-26T07:53:42.959Z,994.53
2018-04-26T07:54:42.896Z,994.53
2018-04-26T07:55:42.825Z,994.55
2018-04-26T07:56:42.762Z,994.60
2018-04-26T07:57:42.689Z,994.52
2018-04-26T07:58:42.627Z,994.57
2018-04-26T07:59:42.551Z,994.61
2018-04-26T08:00:42.518Z,994.57
2018-04-26T08:01:42.472Z,994.57
2018-04-26T08:02:42.367Z,994.58
2018-04-26T08:03:42.320Z,994.59
2018-04-26T08:04:42.241Z,994.61
2018-04-26T08:05:42.177Z,994.61
2018-04-26T08:06:42.108Z,994.51
2018-04-26T08:07:42.078Z,994.60
2018-04-26T08:08:42.013Z,994.62
2018-04-26T08:09:41.946Z,994.52
2018-04-26T08:10:41.857Z,994.57
2018-04-26T08:11:41.842Z,994.56
2018-04-26T08:12:41.728Z,994.57
2018-04-26T08:13:41.684Z,994.56
2018-04-26T08:14:41.597Z,994.59
2018-04-26T08:15:41.558Z,994.49
2018-04-26T08:16:41.470Z,994.58
2018-04-26T08:17:41.422Z,994.55
2018-04-26T08:18:41.347Z,994.54
2018-04-26T08:19:41.386Z,994.33
2018-04-26T08:20:41.223Z,994.50
2018-04-26T08:21:41.170Z,994.55
2018-04-26T08:22:41.093Z,994.52
2018-04-26T08:23:41.021Z,994.60
2018-04-26T08:24:40.961Z,994.56
2018-04-26T08:25:40.915Z,994.58
2018-04-26T08:26:40.831Z,994.57
2018-04-26T08:27:40.769Z,994.61
2018-04-26T08:28:40.729Z,994.69
2018-04-26T08:29:40.640Z,994.68
2018-04-26T08:30:40.597Z,994.64
2018-04-26T08:31:40.515Z,994.73
2018-04-26T08:32:40.466Z,994.68
2018-04-26T08:33:40.404Z,994.70
2018-04-26T08:34:40.344Z,994.67
2018-04-26T08:35:40.282Z,994.70
2018-04-26T08:36:40.200Z,994.70
2018-04-26T08:37:40.139Z,994.63
2018-04-26T08:38:40.085Z,994.67
2018-04-26T08:39:40.009Z,994.58
2018-04-26T08:40:39.951Z,994.67
2018-04-26T08:41:39.877Z,994.60
2018-04-26T08:42:39.813Z,994.62
2018-04-26T08:43:39.768Z,994.61
2018-04-26T08:44:39.704Z,994.68
2018-04-26T08:45:39.638Z,994.61
2018-04-26T08:46:39.563Z,994.68
2018-04-26T08:47:39.490Z,994.57
2018-04-26T08:48:39.445Z,994.60
2018-04-26T08:49:39.383Z,994.55
2018-04-26T08:50:39.299Z,994.57
2018-04-26T08:51:39.239Z,994.48
2018-04-26T08:52:39.173Z,994.51
2018-04-26T08:53:39.143Z,994.47
2018-04-26T08:54:39.069Z,994.45
2018-04-26T08:55:39.004Z,994.48
2018-04-26T08:56:38.947Z,994.54
2018-04-26T08:57:38.874Z,994.51
2018-04-26T08:58:38.812Z,994.49
2018-04-26T08:59:38.741Z,994.52
2018-04-26T09:00:38.666Z,994.40
2018-04-26T09:01:38.618Z,994.45
2018-04-26T09:02:38.545Z,994.44
2018-04-26T09:03:38.497Z,994.46
2018-04-26T09:04:38.439Z,994.43
2018-04-26T09:05:38.351Z,994.46
2018-04-26T09:06:38.302Z,994.48
2018-04-26T09:07:38.222Z,994.50
2018-04-26T09:08:38.154Z,994.53
2018-04-26T09:09:38.108Z,994.44
2018-04-26T09:10:38.034Z,994.52
2018-04-26T09:11:37.978Z,994.53
2018-04-26T09:12:37.914Z,994.50
2018-04-26T09:13:37.846Z,994.43
2018-04-26T09:14:37.783Z,994.50
2018-04-26T09:15:37.749Z,994.50
2018-04-26T09:16:37.651Z,994.45
2018-04-26T09:17:37.660Z,994.46
2018-04-26T09:18:37.548Z,994.40
2018-04-26T09:19:37.472Z,994.53
2018-04-26T09:20:37.416Z,994.45
2018-04-26T09:21:37.340Z,994.43
2018-04-26T09:22:37.291Z,994.41
2018-04-26T09:23:37.219Z,994.51
2018-04-26T09:24:37.148Z,994.47
2018-04-26T09:25:37.095Z,994.58
2018-04-26T09:26:37.023Z,994.42
2018-04-26T09:27:36.965Z,994.50
2018-04-26T09:28:36.894Z,994.52
2018-04-26T09:29:36.857Z,994.49
2018-04-26T09:30:36.781Z,994.50
2018-04-26T09:31:36.699Z,994.47
2018-04-26T09:32:36.646Z,994.43
2018-04-26T09:33:36.594Z,994.41
2018-04-26T09:34:36.547Z,994.49
2018-04-26T09:35:36.451Z,994.34
2018-04-26T09:36:36.394Z,994.41
2018-04-26T09:37:36.326Z,994.36
2018-04-26T09:38:36.323Z,994.25
2018-04-26T09:39:36.210Z,994.36
2018-04-26T09:40:36.154Z,994.32
2018-04-26T09:41:36.103Z,994.37
2018-04-26T09:42:36.009Z,994.36
2018-04-26T09:43:35.939Z,994.43
2018-04-26T09:44:35.908Z,994.38
2018-04-26T09:45:35.823Z,994.40
2018-04-26T09:46:35.756Z,994.31
2018-04-26T09:47:35.714Z,994.33
2018-04-26T09:48:35.689Z,994.34
2018-04-26T09:49:35.588Z,994.34
2018-04-26T09:50:35.509Z,994.30
2018-04-26T09:51:35.447Z,994.38
2018-04-26T09:52:35.377Z,994.45
2018-04-26T09:53:35.344Z,994.43
2018-04-26T09:54:35.253Z,994.44
2018-04-26T09:55:35.247Z,994.36
2018-04-26T09:56:35.136Z,994.43
2018-04-26T09:57:35.063Z,994.44
2018-04-26T09:58:35.036Z,994.43
2018-04-26T09:59:34.939Z,994.44
2018-04-26T10:00:34.888Z,994.41
2018-04-26T10:01:34.813Z,994.35
2018-04-26T10:02:34.781Z,994.35
2018-04-26T10:03:34.725Z,994.41
2018-04-26T10:04:34.625Z,994.38
2018-04-26T10:05:34.563Z,994.27
2018-04-26T10:06:34.498Z,994.36
2018-04-26T10:07:34.438Z,994.31
2018-04-26T10:08:34.456Z,994.29
2018-04-26T10:09:34.325Z,994.25
2018-04-26T10:10:34.291Z,994.32
2018-04-26T10:11:34.202Z,994.21
2018-04-26T10:12:34.119Z,994.20
2018-04-26T10:13:34.071Z,994.23
2018-04-26T10:14:34.011Z,994.23
2018-04-26T10:15:33.940Z,994.18
2018-04-26T10:16:33.898Z,994.11
2018-04-26T10:17:33.831Z,994.04
2018-04-26T10:18:33.765Z,994.02
2018-04-26T10:19:33.690Z,994.06
2018-04-26T10:20:33.633Z,994.00
2018-04-26T10:21:33.577Z,994.06
2018-04-26T10:22:33.552Z,993.99
2018-04-26T10:23:33.423Z,994.03
2018-04-26T10:24:33.386Z,993.98
2018-04-26T10:25:33.336Z,994.02
2018-04-26T10:26:33.251Z,993.99
2018-04-26T10:27:33.199Z,993.95
2018-04-26T10:28:33.118Z,993.99
2018-04-26T10:29:33.070Z,993.90
2018-04-26T10:30:32.989Z,993.97
2018-04-26T10:31:32.947Z,993.93
2018-04-26T10:32:32.881Z,993.92
2018-04-26T10:33:32.804Z,993.94
2018-04-26T10:34:32.756Z,993.91
2018-04-26T10:35:32.674Z,993.82
2018-04-26T10:36:32.627Z,993.86
2018-04-26T10:37:32.550Z,993.85
2018-04-26T10:38:32.490Z,993.88
2018-04-26T10:39:32.439Z,993.79
2018-04-26T10:40:32.357Z,993.76
2018-04-26T10:41:32.329Z,993.77
2018-04-26T10:42:32.250Z,993.71
2018-04-26T10:43:32.168Z,993.68
2018-04-26T10:44:32.107Z,993.64
2018-04-26T10:45:32.062Z,993.70
2018-04-26T10:46:32.000Z,993.67
2018-04-26T10:47:31.937Z,993.61
2018-04-26T10:48:31.870Z,993.61
2018-04-26T10:49:31.799Z,993.51
2018-04-26T10:50:31.750Z,993.53
2018-04-26T10:51:31.694Z,993.53
2018-04-26T10:52:31.627Z,993.47
2018-04-26T10:53:31.537Z,993.52
2018-04-26T10:54:31.511Z,993.53
2018-04-26T10:55:31.433Z,993.46
2018-04-26T10:56:31.366Z,993.47
2018-04-26T10:57:31.295Z,993.44
2018-04-26T10:58:31.248Z,993.59
2018-04-26T10:59:31.171Z,993.48
2018-04-26T11:00:31.124Z,993.41
2018-04-26T11:01:31.059Z,993.54
2018-04-26T11:02:30.993Z,993.42
2018-04-26T11:03:30.927Z,993.44
2018-04-26T11:04:30.880Z,993.41
2018-04-26T11:05:30.815Z,993.37
2018-04-26T11:06:30.746Z,993.40
2018-04-26T11:07:30.727Z,993.32
2018-04-26T11:08:30.601Z,993.26
2018-04-26T11:09:30.577Z,993.27
2018-04-26T11:10:30.475Z,993.31
2018-04-26T11:11:30.447Z,993.39
2018-04-26T11:12:30.369Z,993.36
2018-04-26T11:13:30.296Z,993.32
2018-04-26T11:14:30.233Z,993.27
2018-04-26T11:15:30.230Z,993.27
2018-04-26T11:16:30.121Z,993.22
2018-04-26T11:17:30.044Z,993.18
2018-04-26T11:18:29.998Z,993.20
2018-04-26T11:19:29.932Z,993.27
2018-04-26T11:20:29.847Z,993.22
2018-04-26T11:21:29.809Z,993.23
2018-04-26T11:22:29.765Z,993.20
2018-04-26T11:23:29.679Z,993.15
2018-04-26T11:24:29.711Z,993.18
2018-04-26T11:25:29.544Z,993.27
2018-04-26T11:26:29.483Z,993.19
2018-04-26T11:27:29.412Z,993.21
2018-04-26T11:28:29.357Z,993.17
2018-04-26T11:29:29.289Z,993.21
2018-04-26T11:30:29.229Z,993.19
2018-04-26T11:31:29.172Z,993.12
2018-04-26T11:32:29.122Z,993.17
2018-04-26T11:33:29.081Z,993.09
2018-04-26T11:34:28.973Z,993.12
2018-04-26T11:35:28.912Z,993.13
2018-04-26T11:36:28.853Z,993.15
2018-04-26T11:37:28.807Z,993.07
2018-04-26T11:38:28.731Z,993.03
2018-04-26T11:39:28.681Z,993.06
2018-04-26T11:40:28.602Z,993.00
2018-04-26T11:41:28.557Z,993.06
2018-04-26T11:42:28.494Z,993.00
2018-04-26T11:43:28.404Z,993.04
2018-04-26T11:44:28.349Z,992.98
2018-04-26T11:45:28.302Z,992.99
2018-04-26T11:46:28.221Z,992.96
2018-04-26T11:47:28.159Z,992.97
2018-04-26T11:48:28.101Z,993.01
2018-04-26T11:49:28.032Z,992.96
2018-04-26T11:50:27.973Z,992.94
2018-04-26T11:51:27.929Z,992.96
2018-04-26T11:52:27.898Z,992.95
2018-04-26T11:53:27.783Z,992.94
2018-04-26T11:54:27.741Z,992.91
2018-04-26T11:55:27.670Z,992.86
2018-04-26T11:56:27.619Z,992.88
2018-04-26T11:57:27.533Z,992.82
2018-04-26T11:58:27.471Z,992.77
2018-04-26T11:59:27.430Z,992.77
2018-04-26T12:00:27.364Z,992.72
2018-04-26T12:01:27.300Z,992.81
2018-04-26T12:02:27.238Z,992.74
2018-04-26T12:03:27.185Z,992.77
2018-04-26T12:04:27.097Z,992.75
2018-04-26T12:05:27.057Z,992.72
2018-04-26T12:06:26.992Z,992.71
2018-04-26T12:07:26.913Z,992.67
2018-04-26T12:08:26.846Z,992.66
2018-04-26T12:09:26.796Z,992.70
2018-04-26T12:10:26.719Z,992.75
2018-04-26T12:11:26.676Z,992.71
2018-04-26T12:12:26.616Z,992.69
2018-04-26T12:13:26.548Z,992.73
2018-04-26T12:14:26.565Z,992.66
2018-04-26T12:15:26.435Z,992.64
2018-04-26T12:16:26.365Z,992.67
2018-04-26T12:17:26.294Z,992.64
2018-04-26T12:18:26.242Z,992.71
2018-04-26T12:19:26.165Z,992.65
2018-04-26T12:20:26.093Z,992.62
2018-04-26T12:21:26.054Z,992.65
2018-04-26T12:22:25.978Z,992.58
2018-04-26T12:23:25.928Z,992.58
2018-04-26T12:24:25.858Z,992.52
2018-04-26T12:25:25.799Z,992.57
2018-04-26T12:26:25.736Z,992.58
2018-04-26T12:27:25.672Z,992.50